Carnival Vista — 3EMB9 — position and weather

sailwx.info

Track history (hours):
 
Tides and Currents Weather Stations Pressure Air Temp Water Temp Dewpoint Dewpoint Depression Visibility Wind Speed Wind Dir Waves Ship Positions

Carnival Vista

Last reported at 2017-Sep-17 21:29 UTC. Time now 2017-Sep-23 02:22 UTC.
Position N 25°43' W 079°59'.

Length 324 m; draft 8.5 m.

Type: Passenger vessel. MMSI: 356883000.

Date/timePositionNaut miles runAvg speedWind from/ knotsBaromVisibWave heightAir tempDewpointWater temp
2017-Sep-17 21:29N 25°43' W 079°59'612.5
2017-Sep-17 21:00N 25°46' W 080°05'4 8.7
2017-Sep-17 20:30N 25°46' W 080°10'0 0.8
2017-Sep-17 20:00N 25°47' W 080°10'0 0.0
2017-Sep-17 19:30N 25°47' W 080°10'0 0.0
2017-Sep-17 19:00N 25°47' W 080°10'0 0.0
2017-Sep-17 18:30N 25°47' W 080°10'0 0.0
2017-Sep-17 18:00N 25°47' W 080°10'0 0.0
2017-Sep-17 17:30N 25°47' W 080°10'0 0.0
2017-Sep-17 17:00N 25°47' W 080°10'0 0.0
2017-Sep-17 16:27N 25°47' W 080°10'0 0.0
2017-Sep-17 16:00N 25°47' W 080°10'0 0.0
2017-Sep-17 15:18N 25°47' W 080°10'0 0.0
2017-Sep-17 15:00N 25°47' W 080°10'0 0.0
2017-Sep-17 14:27N 25°47' W 080°10'0 0.0
2017-Sep-17 14:00N 25°47' W 080°10'0 0.0
2017-Sep-17 13:30N 25°47' W 080°10'0 0.0
2017-Sep-17 13:01N 25°47' W 080°10'0 0.0
2017-Sep-17 12:30N 25°47' W 080°10'0 0.0
2017-Sep-17 12:00N 25°47' W 080°10'0 0.0
2017-Sep-17 11:30N 25°47' W 080°10'0 0.0
2017-Sep-17 11:00N 25°47' W 080°10'0 0.0
2017-Sep-17 10:30N 25°47' W 080°10'0 0.0
2017-Sep-17 10:01N 25°47' W 080°10'0 0.0
2017-Sep-17 09:30N 25°47' W 080°10'1 1.7
2017-Sep-17 09:00N 25°47' W 080°11'2 4.1
2017-Sep-17 08:30N 25°46' W 080°09'611.1
2017-Sep-17 08:00N 25°46' W 080°03'612.3
2017-Sep-17 07:31N 25°42' W 079°58'1019.9
2017-Sep-17 07:01N 25°34' W 079°52'1220.4
2017-Sep-17 06:25N 25°24' W 079°43'  
2017-Sep-13 22:50N 25°41' W 079°58'411.3
2017-Sep-13 22:30N 25°44' W 080°01'5 9.6
2017-Sep-13 22:00N 25°46' W 080°06'4 8.0
2017-Sep-13 21:30N 25°47' W 080°10'0 0.3
2017-Sep-13 21:01N 25°47' W 080°10'0 0.4
2017-Sep-13 20:29N 25°47' W 080°10'0 0.0
2017-Sep-13 19:53N 25°47' W 080°10'0 0.0
2017-Sep-13 19:26N 25°47' W 080°10'0 0.0
2017-Sep-13 18:53N 25°47' W 080°10'0 0.0
2017-Sep-13 18:23N 25°47' W 080°10'0 0.0
2017-Sep-13 17:59N 25°47' W 080°10'0 0.0
2017-Sep-13 17:26N 25°47' W 080°10'0 0.0
2017-Sep-13 16:59N 25°47' W 080°10'0 0.0
2017-Sep-13 16:29N 25°47' W 080°10'0 0.0
2017-Sep-13 15:59N 25°47' W 080°10'0 0.0
2017-Sep-13 15:29N 25°47' W 080°10'0 0.0
2017-Sep-13 14:59N 25°47' W 080°10'0 0.0
2017-Sep-13 14:23N 25°47' W 080°10'0 0.0
2017-Sep-13 13:59N 25°47' W 080°10'0 0.0
2017-Sep-13 13:29N 25°47' W 080°10'0 0.0
2017-Sep-13 12:59N 25°47' W 080°10'0 0.0
2017-Sep-13 12:29N 25°47' W 080°10'0 0.0
2017-Sep-13 11:56N 25°47' W 080°10'0 0.0
2017-Sep-13 11:29N 25°47' W 080°10'0 0.0
2017-Sep-13 10:59N 25°47' W 080°10'0 0.0
2017-Sep-13 10:29N 25°47' W 080°10'0 0.0
2017-Sep-13 09:56N 25°47' W 080°10'0 0.0
2017-Sep-13 09:29N 25°47' W 080°10'0 0.0
2017-Sep-13 08:59N 25°47' W 080°10'0 0.0
2017-Sep-13 08:29N 25°47' W 080°10'0 0.0
2017-Sep-13 07:59N 25°47' W 080°10'0 0.0
2017-Sep-13 07:29N 25°47' W 080°10'0 0.0
2017-Sep-13 06:59N 25°47' W 080°10'0 0.0
2017-Sep-13 06:29N 25°47' W 080°10'0 0.0
2017-Sep-13 05:59N 25°47' W 080°10'0 0.0
2017-Sep-13 05:29N 25°47' W 080°10'0 0.0
2017-Sep-13 04:59N 25°47' W 080°10'0 0.0
2017-Sep-13 04:29N 25°47' W 080°10'0 0.0
2017-Sep-13 03:59N 25°47' W 080°10'0 0.0
2017-Sep-13 03:29N 25°47' W 080°10'0 0.0
2017-Sep-13 02:56N 25°47' W 080°10'0 0.0
2017-Sep-13 02:23N 25°47' W 080°10'0 0.0
2017-Sep-13 01:59N 25°47' W 080°10'0 0.0
2017-Sep-13 01:26N 25°47' W 080°10'0 0.0
2017-Sep-13 00:59N 25°47' W 080°10'0 0.0
2017-Sep-13 00:30N 25°47' W 080°10'1 2.2
2017-Sep-13 00:00N 25°46' W 080°09'611.2
2017-Sep-12 23:30N 25°47' W 080°03'2 4.5
2017-Sep-12 23:00N 25°45' W 080°01'1 1.6
2017-Sep-12 22:30N 25°45' W 080°01'1 1.4
2017-Sep-12 22:00N 25°44' W 080°02'2 3.7
2017-Sep-12 21:31N 25°46' W 080°01'3 5.7
2017-Sep-12 21:00N 25°48' W 079°58'5 9.3
2017-Sep-12 20:30N 25°49' W 079°54'4 8.1
2017-Sep-12 20:01N 25°51' W 079°50'4 7.4
2017-Sep-12 19:30N 25°51' W 079°45'510.6
2017-Sep-12 19:00N 25°46' W 079°43'511.0
2017-Sep-12 18:31N 25°41' W 079°45'510.7
2017-Sep-12 18:01N 25°36' W 079°48'4 8.7
2017-Sep-12 17:31N 25°34' W 079°53'5 8.9
2017-Sep-12 17:00N 25°35' W 079°58'4 6.3
2017-Sep-12 16:18N 25°37' W 080°01'2 7.6
2017-Sep-12 15:59N 25°40' W 080°01'3 6.9
2017-Sep-12 15:30N 25°43' W 079°59'2 4.1
2017-Sep-12 15:00N 25°41' W 079°57'5 9.1
2017-Sep-12 14:30N 25°38' W 079°54'5 8.9
2017-Sep-12 14:00N 25°34' W 079°51'4 8.9
2017-Sep-12 13:30N 25°31' W 079°48'4 8.8
2017-Sep-12 13:00N 25°28' W 079°45'4 8.0
2017-Sep-12 12:28N 25°26' W 079°40'1 1.9
2017-Sep-12 12:00N 25°25' W 079°40'3 5.7
2017-Sep-12 11:31N 25°25' W 079°43'3 6.5
2017-Sep-12 11:00N 25°22' W 079°42'  
2017-Sep-08 17:02N 20°32' W 087°00'111.3
2017-Sep-08 16:56N 20°31' W 087°00'3 7.0
2017-Sep-08 16:29N 20°29' W 086°59'0 0.1
2017-Sep-08 15:59N 20°29' W 086°59'0 0.0
2017-Sep-08 15:29N 20°29' W 086°59'0 0.0
2017-Sep-08 14:59N 20°29' W 086°59'0 0.0
2017-Sep-08 14:29N 20°29' W 086°59'0 0.0
2017-Sep-08 13:59N 20°29' W 086°59'0 0.0
2017-Sep-08 13:29N 20°29' W 086°59'0 0.0
2017-Sep-08 12:59N 20°29' W 086°59'0 0.0
2017-Sep-08 12:29N 20°29' W 086°59'0 0.0
2017-Sep-08 11:59N 20°29' W 086°59'0 0.0
2017-Sep-08 11:29N 20°29' W 086°59'0 0.0
2017-Sep-08 10:59N 20°29' W 086°59'0 0.0
2017-Sep-08 10:29N 20°29' W 086°59'0 0.0
2017-Sep-08 09:59N 20°29' W 086°59'0 0.0
2017-Sep-08 09:29N 20°29' W 086°59'0 0.0
2017-Sep-08 08:59N 20°29' W 086°59'0 0.0
2017-Sep-08 08:29N 20°29' W 086°59'0 0.0
2017-Sep-08 07:59N 20°29' W 086°59'0 0.0
2017-Sep-08 07:29N 20°29' W 086°59'0 0.0
2017-Sep-08 06:59N 20°29' W 086°59'0 0.0
2017-Sep-08 06:29N 20°29' W 086°59'0 0.0
2017-Sep-08 05:59N 20°29' W 086°59'0 0.0
2017-Sep-08 05:29N 20°29' W 086°59'0 0.0
2017-Sep-08 04:59N 20°29' W 086°59'0 0.0
2017-Sep-08 04:29N 20°29' W 086°59'0 0.0
2017-Sep-08 03:59N 20°29' W 086°59'0 0.0
2017-Sep-08 03:29N 20°29' W 086°59'0 0.0
2017-Sep-08 02:59N 20°29' W 086°59'0 0.0
2017-Sep-08 02:23N 20°29' W 086°59'0 0.0
2017-Sep-08 01:59N 20°29' W 086°59'0 0.0
2017-Sep-08 01:29N 20°29' W 086°59'0 0.0
2017-Sep-08 00:59N 20°29' W 086°59'0 0.0
2017-Sep-08 00:29N 20°29' W 086°59'0 0.0
2017-Sep-07 23:59N 20°29' W 086°59'0 0.0
2017-Sep-07 23:29N 20°29' W 086°59'0 0.0
2017-Sep-07 22:59N 20°29' W 086°59'0 0.0
2017-Sep-07 22:29N 20°29' W 086°59'0 0.0
2017-Sep-07 21:59N 20°29' W 086°59'0 0.0
2017-Sep-07 21:29N 20°29' W 086°59'  
Track history (hours):
 
Tides and Currents Weather Stations Pressure Air Temp Water Temp Dewpoint Dewpoint Depression Visibility Wind Speed Wind Dir Waves Ship Positions

Carnival Vista

Last reported at 2017-Sep-17 21:29 UTC. Time now 2017-Sep-23 02:22 UTC.
Position N 25°43' W 079°59'.

Length 324 m; draft 8.5 m.

Type: Passenger vessel. MMSI: 356883000.

Date/timePositionNaut miles runAvg speedWind from/ knotsBaromVisibWave heightAir tempDewpointWater temp
2017-Sep-17 21:29N 25°43' W 079°59'612.5
2017-Sep-17 21:00N 25°46' W 080°05'4 8.7
2017-Sep-17 20:30N 25°46' W 080°10'0 0.8
2017-Sep-17 20:00N 25°47' W 080°10'0 0.0
2017-Sep-17 19:30N 25°47' W 080°10'0 0.0
2017-Sep-17 19:00N 25°47' W 080°10'0 0.0
2017-Sep-17 18:30N 25°47' W 080°10'0 0.0
2017-Sep-17 18:00N 25°47' W 080°10'0 0.0
2017-Sep-17 17:30N 25°47' W 080°10'0 0.0
2017-Sep-17 17:00N 25°47' W 080°10'0 0.0
2017-Sep-17 16:27N 25°47' W 080°10'0 0.0
2017-Sep-17 16:00N 25°47' W 080°10'0 0.0
2017-Sep-17 15:18N 25°47' W 080°10'0 0.0
2017-Sep-17 15:00N 25°47' W 080°10'0 0.0
2017-Sep-17 14:27N 25°47' W 080°10'0 0.0
2017-Sep-17 14:00N 25°47' W 080°10'0 0.0
2017-Sep-17 13:30N 25°47' W 080°10'0 0.0
2017-Sep-17 13:01N 25°47' W 080°10'0 0.0
2017-Sep-17 12:30N 25°47' W 080°10'0 0.0
2017-Sep-17 12:00N 25°47' W 080°10'0 0.0
2017-Sep-17 11:30N 25°47' W 080°10'0 0.0
2017-Sep-17 11:00N 25°47' W 080°10'0 0.0
2017-Sep-17 10:30N 25°47' W 080°10'0 0.0
2017-Sep-17 10:01N 25°47' W 080°10'0 0.0
2017-Sep-17 09:30N 25°47' W 080°10'1 1.7
2017-Sep-17 09:00N 25°47' W 080°11'2 4.1
2017-Sep-17 08:30N 25°46' W 080°09'611.1
2017-Sep-17 08:00N 25°46' W 080°03'612.3
2017-Sep-17 07:31N 25°42' W 079°58'1019.9
2017-Sep-17 07:01N 25°34' W 079°52'1220.4
2017-Sep-17 06:25N 25°24' W 079°43'  
2017-Sep-13 22:50N 25°41' W 079°58'411.3
2017-Sep-13 22:30N 25°44' W 080°01'5 9.6
2017-Sep-13 22:00N 25°46' W 080°06'4 8.0
2017-Sep-13 21:30N 25°47' W 080°10'0 0.3
2017-Sep-13 21:01N 25°47' W 080°10'0 0.4
2017-Sep-13 20:29N 25°47' W 080°10'0 0.0
2017-Sep-13 19:53N 25°47' W 080°10'0 0.0
2017-Sep-13 19:26N 25°47' W 080°10'0 0.0
2017-Sep-13 18:53N 25°47' W 080°10'0 0.0
2017-Sep-13 18:23N 25°47' W 080°10'0 0.0
2017-Sep-13 17:59N 25°47' W 080°10'0 0.0
2017-Sep-13 17:26N 25°47' W 080°10'0 0.0
2017-Sep-13 16:59N 25°47' W 080°10'0 0.0
2017-Sep-13 16:29N 25°47' W 080°10'0 0.0
2017-Sep-13 15:59N 25°47' W 080°10'0 0.0
2017-Sep-13 15:29N 25°47' W 080°10'0 0.0
2017-Sep-13 14:59N 25°47' W 080°10'0 0.0
2017-Sep-13 14:23N 25°47' W 080°10'0 0.0
2017-Sep-13 13:59N 25°47' W 080°10'0 0.0
2017-Sep-13 13:29N 25°47' W 080°10'0 0.0
2017-Sep-13 12:59N 25°47' W 080°10'0 0.0
2017-Sep-13 12:29N 25°47' W 080°10'0 0.0
2017-Sep-13 11:56N 25°47' W 080°10'0 0.0
2017-Sep-13 11:29N 25°47' W 080°10'0 0.0
2017-Sep-13 10:59N 25°47' W 080°10'0 0.0
2017-Sep-13 10:29N 25°47' W 080°10'0 0.0
2017-Sep-13 09:56N 25°47' W 080°10'0 0.0
2017-Sep-13 09:29N 25°47' W 080°10'0 0.0
2017-Sep-13 08:59N 25°47' W 080°10'0 0.0
2017-Sep-13 08:29N 25°47' W 080°10'0 0.0
2017-Sep-13 07:59N 25°47' W 080°10'0 0.0
2017-Sep-13 07:29N 25°47' W 080°10'0 0.0
2017-Sep-13 06:59N 25°47' W 080°10'0 0.0
2017-Sep-13 06:29N 25°47' W 080°10'0 0.0
2017-Sep-13 05:59N 25°47' W 080°10'0 0.0
2017-Sep-13 05:29N 25°47' W 080°10'0 0.0
2017-Sep-13 04:59N 25°47' W 080°10'0 0.0
2017-Sep-13 04:29N 25°47' W 080°10'0 0.0
2017-Sep-13 03:59N 25°47' W 080°10'0 0.0
2017-Sep-13 03:29N 25°47' W 080°10'0 0.0
2017-Sep-13 02:56N 25°47' W 080°10'0 0.0
2017-Sep-13 02:23N 25°47' W 080°10'0 0.0
2017-Sep-13 01:59N 25°47' W 080°10'0 0.0
2017-Sep-13 01:26N 25°47' W 080°10'0 0.0
2017-Sep-13 00:59N 25°47' W 080°10'0 0.0
2017-Sep-13 00:30N 25°47' W 080°10'1 2.2
2017-Sep-13 00:00N 25°46' W 080°09'611.2
2017-Sep-12 23:30N 25°47' W 080°03'2 4.5
2017-Sep-12 23:00N 25°45' W 080°01'1 1.6
2017-Sep-12 22:30N 25°45' W 080°01'1 1.4
2017-Sep-12 22:00N 25°44' W 080°02'2 3.7
2017-Sep-12 21:31N 25°46' W 080°01'3 5.7
2017-Sep-12 21:00N 25°48' W 079°58'5 9.3
2017-Sep-12 20:30N 25°49' W 079°54'4 8.1
2017-Sep-12 20:01N 25°51' W 079°50'4 7.4
2017-Sep-12 19:30N 25°51' W 079°45'510.6
2017-Sep-12 19:00N 25°46' W 079°43'511.0
2017-Sep-12 18:31N 25°41' W 079°45'510.7
2017-Sep-12 18:01N 25°36' W 079°48'4 8.7
2017-Sep-12 17:31N 25°34' W 079°53'5 8.9
2017-Sep-12 17:00N 25°35' W 079°58'4 6.3
2017-Sep-12 16:18N 25°37' W 080°01'2 7.6
2017-Sep-12 15:59N 25°40' W 080°01'3 6.9
2017-Sep-12 15:30N 25°43' W 079°59'2 4.1
2017-Sep-12 15:00N 25°41' W 079°57'5 9.1
2017-Sep-12 14:30N 25°38' W 079°54'5 8.9
2017-Sep-12 14:00N 25°34' W 079°51'4 8.9
2017-Sep-12 13:30N 25°31' W 079°48'4 8.8
2017-Sep-12 13:00N 25°28' W 079°45'4 8.0
2017-Sep-12 12:28N 25°26' W 079°40'1 1.9
2017-Sep-12 12:00N 25°25' W 079°40'3 5.7
2017-Sep-12 11:31N 25°25' W 079°43'3 6.5
2017-Sep-12 11:00N 25°22' W 079°42'  
2017-Sep-08 17:02N 20°32' W 087°00'111.3
2017-Sep-08 16:56N 20°31' W 087°00'3 7.0
2017-Sep-08 16:29N 20°29' W 086°59'0 0.1
2017-Sep-08 15:59N 20°29' W 086°59'0 0.0
2017-Sep-08 15:29N 20°29' W 086°59'0 0.0
2017-Sep-08 14:59N 20°29' W 086°59'0 0.0
2017-Sep-08 14:29N 20°29' W 086°59'0 0.0
2017-Sep-08 13:59N 20°29' W 086°59'0 0.0
2017-Sep-08 13:29N 20°29' W 086°59'0 0.0
2017-Sep-08 12:59N 20°29' W 086°59'0 0.0
2017-Sep-08 12:29N 20°29' W 086°59'0 0.0
2017-Sep-08 11:59N 20°29' W 086°59'0 0.0
2017-Sep-08 11:29N 20°29' W 086°59'0 0.0
2017-Sep-08 10:59N 20°29' W 086°59'0 0.0
2017-Sep-08 10:29N 20°29' W 086°59'0 0.0
2017-Sep-08 09:59N 20°29' W 086°59'0 0.0
2017-Sep-08 09:29N 20°29' W 086°59'0 0.0
2017-Sep-08 08:59N 20°29' W 086°59'0 0.0
2017-Sep-08 08:29N 20°29' W 086°59'0 0.0
2017-Sep-08 07:59N 20°29' W 086°59'0 0.0
2017-Sep-08 07:29N 20°29' W 086°59'0 0.0
2017-Sep-08 06:59N 20°29' W 086°59'0 0.0
2017-Sep-08 06:29N 20°29' W 086°59'0 0.0
2017-Sep-08 05:59N 20°29' W 086°59'0 0.0
2017-Sep-08 05:29N 20°29' W 086°59'0 0.0
2017-Sep-08 04:59N 20°29' W 086°59'0 0.0
2017-Sep-08 04:29N 20°29' W 086°59'0 0.0
2017-Sep-08 03:59N 20°29' W 086°59'0 0.0
2017-Sep-08 03:29N 20°29' W 086°59'0 0.0
2017-Sep-08 02:59N 20°29' W 086°59'0 0.0
2017-Sep-08 02:23N 20°29' W 086°59'0 0.0
2017-Sep-08 01:59N 20°29' W 086°59'0 0.0
2017-Sep-08 01:29N 20°29' W 086°59'0 0.0
2017-Sep-08 00:59N 20°29' W 086°59'0 0.0
2017-Sep-08 00:29N 20°29' W 086°59'0 0.0
2017-Sep-07 23:59N 20°29' W 086°59'0 0.0
2017-Sep-07 23:29N 20°29' W 086°59'0 0.0
2017-Sep-07 22:59N 20°29' W 086°59'0 0.0
2017-Sep-07 22:29N 20°29' W 086°59'0 0.0
2017-Sep-07 21:59N 20°29' W 086°59'0 0.0
2017-Sep-07 21:29N 20°29' W 086°59'  

Dump ship's entire track history